sensor_id;sensor_type;location;lat;lon;timestamp;P1;durP1;ratioP1;P2;durP2;ratioP2
73421;SDS011;61637;47.760;-122.022;2024-03-08T00:00:01;4.8;;;1.6;;
73421;SDS011;61637;47.760;-122.022;2024-03-08T00:02:01;4.6;;;1.5;;
73421;SDS011;61637;47.760;-122.022;2024-03-08T00:04:01;5.3;;;1.6;;
73421;SDS011;61637;47.760;-122.022;2024-03-08T00:06:01;4.0;;;1.4;;
73421;SDS011;61637;47.760;-122.022;2024-03-08T00:08:01;4.3;;;1.3;;
73421;SDS011;61637;47.760;-122.022;2024-03-08T00:10:01;4.8;;;1.4;;
73421;SDS011;61637;47.760;-122.022;2024-03-08T00:12:01;3.9;;;1.3;;
73421;SDS011;61637;47.760;-122.022;2024-03-08T00:14:02;6.5;;;1.4;;
73421;SDS011;61637;47.760;-122.022;2024-03-08T00:16:01;3.8;;;1.3;;
73421;SDS011;61637;47.760;-122.022;2024-03-08T00:18:01;4.8;;;1.3;;
73421;SDS011;61637;47.760;-122.022;2024-03-08T00:20:01;5.3;;;1.4;;
73421;SDS011;61637;47.760;-122.022;2024-03-08T00:22:01;3.5;;;1.3;;
73421;SDS011;61637;47.760;-122.022;2024-03-08T00:24:01;6.6;;;1.5;;
73421;SDS011;61637;47.760;-122.022;2024-03-08T00:26:01;5.3;;;1.4;;
73421;SDS011;61637;47.760;-122.022;2024-03-08T00:28:01;3.9;;;1.4;;
73421;SDS011;61637;47.760;-122.022;2024-03-08T00:30:02;6.0;;;1.7;;
73421;SDS011;61637;47.760;-122.022;2024-03-08T00:32:01;4.6;;;1.7;;
73421;SDS011;61637;47.760;-122.022;2024-03-08T00:34:01;6.2;;;1.5;;
73421;SDS011;61637;47.760;-122.022;2024-03-08T00:36:01;5.2;;;1.5;;
73421;SDS011;61637;47.760;-122.022;2024-03-08T00:38:01;5.1;;;1.4;;
73421;SDS011;61637;47.760;-122.022;2024-03-08T00:40:01;4.3;;;1.4;;
73421;SDS011;61637;47.760;-122.022;2024-03-08T00:42:01;6.4;;;1.6;;
73421;SDS011;61637;47.760;-122.022;2024-03-08T00:44:01;5.2;;;1.6;;
73421;SDS011;61637;47.760;-122.022;2024-03-08T00:46:01;5.0;;;1.5;;
73421;SDS011;61637;47.760;-122.022;2024-03-08T00:48:02;4.4;;;1.4;;
73421;SDS011;61637;47.760;-122.022;2024-03-08T00:50:01;4.5;;;1.3;;
73421;SDS011;61637;47.760;-122.022;2024-03-08T00:52:01;4.7;;;1.5;;
73421;SDS011;61637;47.760;-122.022;2024-03-08T00:54:01;4.6;;;1.4;;
73421;SDS011;61637;47.760;-122.022;2024-03-08T00:56:01;4.5;;;1.3;;
73421;SDS011;61637;47.760;-122.022;2024-03-08T00:58:01;7.3;;;1.5;;
73421;SDS011;61637;47.760;-122.022;2024-03-08T01:00:04;3.9;;;1.3;;
73421;SDS011;61637;47.760;-122.022;2024-03-08T01:02:01;4.7;;;1.5;;
73421;SDS011;61637;47.760;-122.022;2024-03-08T01:04:01;4.5;;;1.4;;
73421;SDS011;61637;47.760;-122.022;2024-03-08T01:06:01;4.8;;;1.4;;
73421;SDS011;61637;47.760;-122.022;2024-03-08T01:08:02;6.3;;;1.5;;
73421;SDS011;61637;47.760;-122.022;2024-03-08T01:10:02;7.0;;;1.4;;
73421;SDS011;61637;47.760;-122.022;2024-03-08T01:12:02;6.2;;;1.4;;
73421;SDS011;61637;47.760;-122.022;2024-03-08T01:14:01;6.3;;;1.4;;
73421;SDS011;61637;47.760;-122.022;2024-03-08T01:16:01;5.8;;;1.5;;
73421;SDS011;61637;47.760;-122.022;2024-03-08T01:18:01;5.4;;;1.3;;
73421;SDS011;61637;47.760;-122.022;2024-03-08T01:20:01;4.7;;;1.4;;
73421;SDS011;61637;47.760;-122.022;2024-03-08T01:22:01;5.7;;;1.4;;
73421;SDS011;61637;47.760;-122.022;2024-03-08T01:24:01;4.1;;;1.4;;
73421;SDS011;61637;47.760;-122.022;2024-03-08T01:26:01;4.8;;;1.4;;
73421;SDS011;61637;47.760;-122.022;2024-03-08T01:28:01;4.8;;;1.3;;
73421;SDS011;61637;47.760;-122.022;2024-03-08T01:30:01;5.2;;;1.3;;
73421;SDS011;61637;47.760;-122.022;2024-03-08T01:32:01;5.2;;;1.4;;
73421;SDS011;61637;47.760;-122.022;2024-03-08T01:34:01;4.6;;;1.3;;
73421;SDS011;61637;47.760;-122.022;2024-03-08T01:36:02;4.2;;;1.2;;
73421;SDS011;61637;47.760;-122.022;2024-03-08T01:38:01;4.8;;;1.3;;
73421;SDS011;61637;47.760;-122.022;2024-03-08T01:40:02;4.8;;;1.2;;
73421;SDS011;61637;47.760;-122.022;2024-03-08T01:42:01;5.1;;;1.4;;
73421;SDS011;61637;47.760;-122.022;2024-03-08T01:44:01;2.9;;;1.1;;
73421;SDS011;61637;47.760;-122.022;2024-03-08T01:46:02;5.4;;;1.1;;
73421;SDS011;61637;47.760;-122.022;2024-03-08T01:48:01;4.7;;;1.4;;
73421;SDS011;61637;47.760;-122.022;2024-03-08T01:50:02;6.3;;;1.3;;
73421;SDS011;61637;47.760;-122.022;2024-03-08T01:52:01;3.4;;;1.3;;
73421;SDS011;61637;47.760;-122.022;2024-03-08T01:54:02;4.7;;;1.3;;
73421;SDS011;61637;47.760;-122.022;2024-03-08T01:56:02;5.9;;;1.3;;
73421;SDS011;61637;47.760;-122.022;2024-03-08T01:58:02;5.5;;;1.4;;
73421;SDS011;61637;47.760;-122.022;2024-03-08T02:00:01;5.0;;;1.3;;
73421;SDS011;61637;47.760;-122.022;2024-03-08T02:02:01;4.1;;;1.2;;
73421;SDS011;61637;47.760;-122.022;2024-03-08T02:04:01;4.1;;;1.2;;
73421;SDS011;61637;47.760;-122.022;2024-03-08T02:06:01;6.1;;;1.2;;
73421;SDS011;61637;47.760;-122.022;2024-03-08T02:08:02;4.0;;;1.2;;
73421;SDS011;61637;47.760;-122.022;2024-03-08T02:10:01;4.3;;;1.2;;
73421;SDS011;61637;47.760;-122.022;2024-03-08T02:12:01;5.0;;;1.4;;
73421;SDS011;61637;47.760;-122.022;2024-03-08T02:14:01;3.4;;;1.1;;
73421;SDS011;61637;47.760;-122.022;2024-03-08T02:16:01;3.2;;;1.1;;
73421;SDS011;61637;47.760;-122.022;2024-03-08T02:18:01;4.3;;;1.3;;
73421;SDS011;61637;47.760;-122.022;2024-03-08T02:20:01;3.6;;;1.1;;
73421;SDS011;61637;47.760;-122.022;2024-03-08T02:22:01;4.4;;;1.3;;
73421;SDS011;61637;47.760;-122.022;2024-03-08T02:24:01;4.0;;;1.1;;
73421;SDS011;61637;47.760;-122.022;2024-03-08T02:26:01;5.3;;;1.4;;
73421;SDS011;61637;47.760;-122.022;2024-03-08T02:28:01;4.1;;;1.1;;
73421;SDS011;61637;47.760;-122.022;2024-03-08T02:30:01;4.4;;;1.2;;
73421;SDS011;61637;47.760;-122.022;2024-03-08T02:32:01;5.1;;;1.1;;
73421;SDS011;61637;47.760;-122.022;2024-03-08T02:34:01;4.4;;;1.2;;
73421;SDS011;61637;47.760;-122.022;2024-03-08T02:36:01;3.7;;;1.2;;
73421;SDS011;61637;47.760;-122.022;2024-03-08T02:38:01;6.3;;;1.3;;
73421;SDS011;61637;47.760;-122.022;2024-03-08T02:40:02;3.9;;;1.2;;
73421;SDS011;61637;47.760;-122.022;2024-03-08T02:42:01;4.5;;;1.4;;
73421;SDS011;61637;47.760;-122.022;2024-03-08T02:44:02;3.8;;;1.4;;
73421;SDS011;61637;47.760;-122.022;2024-03-08T02:46:01;4.8;;;1.5;;
73421;SDS011;61637;47.760;-122.022;2024-03-08T02:48:01;5.6;;;1.3;;
73421;SDS011;61637;47.760;-122.022;2024-03-08T02:50:02;4.5;;;1.3;;
73421;SDS011;61637;47.760;-122.022;2024-03-08T02:52:01;4.2;;;1.6;;
73421;SDS011;61637;47.760;-122.022;2024-03-08T02:54:01;4.2;;;1.3;;
73421;SDS011;61637;47.760;-122.022;2024-03-08T02:56:01;5.2;;;1.5;;
73421;SDS011;61637;47.760;-122.022;2024-03-08T02:58:02;4.0;;;1.4;;
73421;SDS011;61637;47.760;-122.022;2024-03-08T03:00:02;6.0;;;1.7;;
73421;SDS011;61637;47.760;-122.022;2024-03-08T03:02:01;6.5;;;1.6;;
73421;SDS011;61637;47.760;-122.022;2024-03-08T03:04:01;5.5;;;1.7;;
73421;SDS011;61637;47.760;-122.022;2024-03-08T03:06:01;4.6;;;1.5;;
73421;SDS011;61637;47.760;-122.022;2024-03-08T03:08:02;4.2;;;1.3;;
73421;SDS011;61637;47.760;-122.022;2024-03-08T03:10:02;5.6;;;1.5;;
73421;SDS011;61637;47.760;-122.022;2024-03-08T03:12:01;6.3;;;1.6;;
73421;SDS011;61637;47.760;-122.022;2024-03-08T03:14:01;7.2;;;1.6;;
73421;SDS011;61637;47.760;-122.022;2024-03-08T03:16:01;5.1;;;1.5;;
73421;SDS011;61637;47.760;-122.022;2024-03-08T03:18:01;5.0;;;1.4;;
73421;SDS011;61637;47.760;-122.022;2024-03-08T03:20:01;4.7;;;1.5;;
73421;SDS011;61637;47.760;-122.022;2024-03-08T03:22:02;6.0;;;1.5;;
73421;SDS011;61637;47.760;-122.022;2024-03-08T03:24:01;5.0;;;1.6;;
73421;SDS011;61637;47.760;-122.022;2024-03-08T03:26:01;6.2;;;1.6;;
73421;SDS011;61637;47.760;-122.022;2024-03-08T03:28:02;6.0;;;1.4;;
73421;SDS011;61637;47.760;-122.022;2024-03-08T03:30:02;4.2;;;1.2;;
73421;SDS011;61637;47.760;-122.022;2024-03-08T03:32:02;3.9;;;1.3;;
73421;SDS011;61637;47.760;-122.022;2024-03-08T03:34:01;6.1;;;1.4;;
73421;SDS011;61637;47.760;-122.022;2024-03-08T03:36:01;4.5;;;1.3;;
73421;SDS011;61637;47.760;-122.022;2024-03-08T03:38:01;4.7;;;1.5;;
73421;SDS011;61637;47.760;-122.022;2024-03-08T03:40:01;4.0;;;1.4;;
73421;SDS011;61637;47.760;-122.022;2024-03-08T03:42:01;4.6;;;2.2;;
73421;SDS011;61637;47.760;-122.022;2024-03-08T03:44:01;8.6;;;3.1;;
73421;SDS011;61637;47.760;-122.022;2024-03-08T03:46:01;19.0;;;7.2;;
73421;SDS011;61637;47.760;-122.022;2024-03-08T03:48:03;16.4;;;6.0;;
73421;SDS011;61637;47.760;-122.022;2024-03-08T03:50:01;9.6;;;3.4;;
73421;SDS011;61637;47.760;-122.022;2024-03-08T03:52:01;18.7;;;6.5;;
73421;SDS011;61637;47.760;-122.022;2024-03-08T03:54:01;23.9;;;8.8;;
73421;SDS011;61637;47.760;-122.022;2024-03-08T03:56:01;22.0;;;8.0;;
73421;SDS011;61637;47.760;-122.022;2024-03-08T03:58:01;23.1;;;8.2;;
73421;SDS011;61637;47.760;-122.022;2024-03-08T04:00:01;12.1;;;4.6;;
73421;SDS011;61637;47.760;-122.022;2024-03-08T04:02:01;12.7;;;4.6;;
73421;SDS011;61637;47.760;-122.022;2024-03-08T04:04:01;11.1;;;4.2;;
73421;SDS011;61637;47.760;-122.022;2024-03-08T04:06:01;10.7;;;4.0;;
73421;SDS011;61637;47.760;-122.022;2024-03-08T04:08:01;14.1;;;5.4;;
73421;SDS011;61637;47.760;-122.022;2024-03-08T04:10:01;13.2;;;5.8;;
73421;SDS011;61637;47.760;-122.022;2024-03-08T04:12:01;11.8;;;4.5;;
73421;SDS011;61637;47.760;-122.022;2024-03-08T04:14:01;10.4;;;6.7;;
73421;SDS011;61637;47.760;-122.022;2024-03-08T04:16:01;10.8;;;8.8;;
73421;SDS011;61637;47.760;-122.022;2024-03-08T04:18:01;12.3;;;9.1;;
73421;SDS011;61637;47.760;-122.022;2024-03-08T04:20:01;9.6;;;8.4;;
73421;SDS011;61637;47.760;-122.022;2024-03-08T04:22:02;9.2;;;6.9;;
73421;SDS011;61637;47.760;-122.022;2024-03-08T04:24:01;8.7;;;5.7;;
73421;SDS011;61637;47.760;-122.022;2024-03-08T04:26:02;9.3;;;6.0;;
73421;SDS011;61637;47.760;-122.022;2024-03-08T04:28:01;9.7;;;8.4;;
73421;SDS011;61637;47.760;-122.022;2024-03-08T04:30:02;9.1;;;7.5;;
73421;SDS011;61637;47.760;-122.022;2024-03-08T04:32:02;10.8;;;8.2;;
73421;SDS011;61637;47.760;-122.022;2024-03-08T04:34:01;13.0;;;11.6;;
73421;SDS011;61637;47.760;-122.022;2024-03-08T04:36:01;14.2;;;12.7;;
73421;SDS011;61637;47.760;-122.022;2024-03-08T04:38:01;14.0;;;12.6;;
73421;SDS011;61637;47.760;-122.022;2024-03-08T04:40:01;13.5;;;12.2;;
73421;SDS011;61637;47.760;-122.022;2024-03-08T04:42:02;16.4;;;14.9;;
73421;SDS011;61637;47.760;-122.022;2024-03-08T04:44:01;18.0;;;16.3;;
73421;SDS011;61637;47.760;-122.022;2024-03-08T04:46:01;17.8;;;16.0;;
73421;SDS011;61637;47.760;-122.022;2024-03-08T04:48:01;16.3;;;14.6;;
73421;SDS011;61637;47.760;-122.022;2024-03-08T04:50:01;15.5;;;14.1;;
73421;SDS011;61637;47.760;-122.022;2024-03-08T04:52:02;15.6;;;14.1;;
73421;SDS011;61637;47.760;-122.022;2024-03-08T04:54:01;16.5;;;15.0;;
73421;SDS011;61637;47.760;-122.022;2024-03-08T04:56:01;16.4;;;14.8;;
73421;SDS011;61637;47.760;-122.022;2024-03-08T04:58:01;17.4;;;15.8;;
73421;SDS011;61637;47.760;-122.022;2024-03-08T05:00:01;16.9;;;15.3;;
73421;SDS011;61637;47.760;-122.022;2024-03-08T05:02:01;16.9;;;15.3;;
73421;SDS011;61637;47.760;-122.022;2024-03-08T05:04:01;17.2;;;15.6;;
73421;SDS011;61637;47.760;-122.022;2024-03-08T05:06:01;16.9;;;15.2;;
73421;SDS011;61637;47.760;-122.022;2024-03-08T05:08:01;16.9;;;15.2;;
73421;SDS011;61637;47.760;-122.022;2024-03-08T05:10:01;16.6;;;15.1;;
73421;SDS011;61637;47.760;-122.022;2024-03-08T05:12:01;16.0;;;14.5;;
73421;SDS011;61637;47.760;-122.022;2024-03-08T05:14:01;15.6;;;14.0;;
73421;SDS011;61637;47.760;-122.022;2024-03-08T05:16:01;15.7;;;14.2;;
73421;SDS011;61637;47.760;-122.022;2024-03-08T05:18:01;15.5;;;14.1;;
73421;SDS011;61637;47.760;-122.022;2024-03-08T05:20:01;15.4;;;14.0;;
73421;SDS011;61637;47.760;-122.022;2024-03-08T05:22:01;15.3;;;13.9;;
73421;SDS011;61637;47.760;-122.022;2024-03-08T05:24:01;14.4;;;13.1;;
73421;SDS011;61637;47.760;-122.022;2024-03-08T05:26:01;14.0;;;12.6;;
73421;SDS011;61637;47.760;-122.022;2024-03-08T05:28:01;14.3;;;13.0;;
73421;SDS011;61637;47.760;-122.022;2024-03-08T05:30:01;15.1;;;13.5;;
73421;SDS011;61637;47.760;-122.022;2024-03-08T05:32:01;16.0;;;14.3;;
73421;SDS011;61637;47.760;-122.022;2024-03-08T05:34:01;16.8;;;15.2;;
73421;SDS011;61637;47.760;-122.022;2024-03-08T05:36:01;15.9;;;14.4;;
73421;SDS011;61637;47.760;-122.022;2024-03-08T05:38:01;15.7;;;14.2;;
73421;SDS011;61637;47.760;-122.022;2024-03-08T05:40:01;16.2;;;14.7;;
73421;SDS011;61637;47.760;-122.022;2024-03-08T05:42:01;15.5;;;14.1;;
73421;SDS011;61637;47.760;-122.022;2024-03-08T05:44:01;15.3;;;13.8;;
73421;SDS011;61637;47.760;-122.022;2024-03-08T05:46:01;15.7;;;14.2;;
73421;SDS011;61637;47.760;-122.022;2024-03-08T05:48:01;16.1;;;14.5;;
73421;SDS011;61637;47.760;-122.022;2024-03-08T05:50:02;15.4;;;13.9;;
73421;SDS011;61637;47.760;-122.022;2024-03-08T05:52:01;16.4;;;14.7;;
73421;SDS011;61637;47.760;-122.022;2024-03-08T05:54:01;16.1;;;14.6;;
73421;SDS011;61637;47.760;-122.022;2024-03-08T05:56:02;16.1;;;14.7;;
73421;SDS011;61637;47.760;-122.022;2024-03-08T05:58:01;15.2;;;13.8;;
73421;SDS011;61637;47.760;-122.022;2024-03-08T06:00:01;15.4;;;13.9;;
73421;SDS011;61637;47.760;-122.022;2024-03-08T06:02:01;16.1;;;14.4;;
73421;SDS011;61637;47.760;-122.022;2024-03-08T06:04:02;15.8;;;14.4;;
73421;SDS011;61637;47.760;-122.022;2024-03-08T06:06:01;15.4;;;14.0;;
73421;SDS011;61637;47.760;-122.022;2024-03-08T06:08:01;15.6;;;14.2;;
73421;SDS011;61637;47.760;-122.022;2024-03-08T06:10:01;15.6;;;14.2;;
73421;SDS011;61637;47.760;-122.022;2024-03-08T06:12:01;15.0;;;13.5;;
73421;SDS011;61637;47.760;-122.022;2024-03-08T06:14:01;15.4;;;14.0;;
73421;SDS011;61637;47.760;-122.022;2024-03-08T06:16:01;15.4;;;14.0;;
73421;SDS011;61637;47.760;-122.022;2024-03-08T06:18:01;16.0;;;14.6;;
73421;SDS011;61637;47.760;-122.022;2024-03-08T06:20:02;15.9;;;14.5;;
73421;SDS011;61637;47.760;-122.022;2024-03-08T06:22:01;14.6;;;13.2;;
73421;SDS011;61637;47.760;-122.022;2024-03-08T06:24:01;14.7;;;13.3;;
73421;SDS011;61637;47.760;-122.022;2024-03-08T06:26:01;14.8;;;13.5;;
73421;SDS011;61637;47.760;-122.022;2024-03-08T06:28:01;14.9;;;13.5;;
73421;SDS011;61637;47.760;-122.022;2024-03-08T06:30:01;14.6;;;13.3;;
73421;SDS011;61637;47.760;-122.022;2024-03-08T06:32:01;15.1;;;13.8;;
73421;SDS011;61637;47.760;-122.022;2024-03-08T06:34:01;14.6;;;13.3;;
73421;SDS011;61637;47.760;-122.022;2024-03-08T06:36:01;16.1;;;14.6;;
73421;SDS011;61637;47.760;-122.022;2024-03-08T06:38:01;15.1;;;13.8;;
73421;SDS011;61637;47.760;-122.022;2024-03-08T06:40:02;15.3;;;14.0;;
73421;SDS011;61637;47.760;-122.022;2024-03-08T06:42:01;15.1;;;13.8;;
73421;SDS011;61637;47.760;-122.022;2024-03-08T06:44:02;14.9;;;13.6;;
73421;SDS011;61637;47.760;-122.022;2024-03-08T06:46:01;15.3;;;13.9;;
73421;SDS011;61637;47.760;-122.022;2024-03-08T06:48:01;15.3;;;13.9;;
73421;SDS011;61637;47.760;-122.022;2024-03-08T06:50:02;14.4;;;13.1;;
73421;SDS011;61637;47.760;-122.022;2024-03-08T06:52:01;15.5;;;14.0;;
73421;SDS011;61637;47.760;-122.022;2024-03-08T06:54:01;14.5;;;13.2;;
73421;SDS011;61637;47.760;-122.022;2024-03-08T06:56:02;14.8;;;13.4;;
73421;SDS011;61637;47.760;-122.022;2024-03-08T06:58:01;14.9;;;13.5;;
73421;SDS011;61637;47.760;-122.022;2024-03-08T07:00:01;15.4;;;14.0;;
73421;SDS011;61637;47.760;-122.022;2024-03-08T07:02:01;14.8;;;13.5;;
73421;SDS011;61637;47.760;-122.022;2024-03-08T07:04:01;15.0;;;13.7;;
73421;SDS011;61637;47.760;-122.022;2024-03-08T07:06:01;15.2;;;13.9;;
73421;SDS011;61637;47.760;-122.022;2024-03-08T07:08:01;15.2;;;13.8;;
73421;SDS011;61637;47.760;-122.022;2024-03-08T07:10:02;14.3;;;13.0;;
73421;SDS011;61637;47.760;-122.022;2024-03-08T07:12:02;14.3;;;13.1;;
73421;SDS011;61637;47.760;-122.022;2024-03-08T07:14:01;15.4;;;14.0;;
73421;SDS011;61637;47.760;-122.022;2024-03-08T07:16:01;14.6;;;13.3;;
73421;SDS011;61637;47.760;-122.022;2024-03-08T07:18:01;15.1;;;13.8;;
73421;SDS011;61637;47.760;-122.022;2024-03-08T07:20:02;15.8;;;14.3;;
73421;SDS011;61637;47.760;-122.022;2024-03-08T07:22:01;15.8;;;14.4;;
73421;SDS011;61637;47.760;-122.022;2024-03-08T07:24:01;15.7;;;14.1;;
73421;SDS011;61637;47.760;-122.022;2024-03-08T07:26:01;15.4;;;14.1;;
73421;SDS011;61637;47.760;-122.022;2024-03-08T07:28:01;15.8;;;14.4;;
73421;SDS011;61637;47.760;-122.022;2024-03-08T07:30:01;16.0;;;14.6;;
73421;SDS011;61637;47.760;-122.022;2024-03-08T07:32:01;15.3;;;14.0;;
73421;SDS011;61637;47.760;-122.022;2024-03-08T07:34:01;15.8;;;14.4;;
73421;SDS011;61637;47.760;-122.022;2024-03-08T07:36:01;16.2;;;14.7;;
73421;SDS011;61637;47.760;-122.022;2024-03-08T07:38:01;15.9;;;14.6;;
73421;SDS011;61637;47.760;-122.022;2024-03-08T07:40:01;15.8;;;14.4;;
73421;SDS011;61637;47.760;-122.022;2024-03-08T07:42:01;16.5;;;15.0;;
73421;SDS011;61637;47.760;-122.022;2024-03-08T07:44:01;15.8;;;14.4;;
73421;SDS011;61637;47.760;-122.022;2024-03-08T07:46:01;15.7;;;14.2;;
73421;SDS011;61637;47.760;-122.022;2024-03-08T07:48:01;15.4;;;14.1;;
73421;SDS011;61637;47.760;-122.022;2024-03-08T07:50:01;15.6;;;14.2;;
73421;SDS011;61637;47.760;-122.022;2024-03-08T07:52:01;15.4;;;14.0;;
73421;SDS011;61637;47.760;-122.022;2024-03-08T07:54:01;15.2;;;13.7;;
73421;SDS011;61637;47.760;-122.022;2024-03-08T07:56:01;15.7;;;14.2;;
73421;SDS011;61637;47.760;-122.022;2024-03-08T07:58:02;15.7;;;14.4;;
73421;SDS011;61637;47.760;-122.022;2024-03-08T08:00:01;15.7;;;14.3;;
73421;SDS011;61637;47.760;-122.022;2024-03-08T08:02:01;15.3;;;13.9;;
73421;SDS011;61637;47.760;-122.022;2024-03-08T08:04:01;14.9;;;13.7;;
73421;SDS011;61637;47.760;-122.022;2024-03-08T08:06:01;15.6;;;14.2;;
73421;SDS011;61637;47.760;-122.022;2024-03-08T08:08:01;15.6;;;14.3;;
73421;SDS011;61637;47.760;-122.022;2024-03-08T08:10:01;14.3;;;13.0;;
73421;SDS011;61637;47.760;-122.022;2024-03-08T08:12:01;14.5;;;13.3;;
73421;SDS011;61637;47.760;-122.022;2024-03-08T08:14:01;15.5;;;14.2;;
73421;SDS011;61637;47.760;-122.022;2024-03-08T08:16:01;14.3;;;13.0;;
73421;SDS011;61637;47.760;-122.022;2024-03-08T08:18:01;14.0;;;12.7;;
73421;SDS011;61637;47.760;-122.022;2024-03-08T08:20:01;15.5;;;14.3;;
73421;SDS011;61637;47.760;-122.022;2024-03-08T08:22:01;15.4;;;14.1;;
73421;SDS011;61637;47.760;-122.022;2024-03-08T08:24:01;15.1;;;13.8;;
73421;SDS011;61637;47.760;-122.022;2024-03-08T08:26:01;14.3;;;13.1;;
73421;SDS011;61637;47.760;-122.022;2024-03-08T08:28:01;14.8;;;13.5;;
73421;SDS011;61637;47.760;-122.022;2024-03-08T08:30:01;15.0;;;13.7;;
73421;SDS011;61637;47.760;-122.022;2024-03-08T08:32:01;15.7;;;14.2;;
73421;SDS011;61637;47.760;-122.022;2024-03-08T08:34:01;14.8;;;13.5;;
73421;SDS011;61637;47.760;-122.022;2024-03-08T08:36:01;14.3;;;13.1;;
73421;SDS011;61637;47.760;-122.022;2024-03-08T08:38:01;15.1;;;13.8;;
73421;SDS011;61637;47.760;-122.022;2024-03-08T08:40:01;14.7;;;13.4;;
73421;SDS011;61637;47.760;-122.022;2024-03-08T08:42:01;14.5;;;13.2;;
73421;SDS011;61637;47.760;-122.022;2024-03-08T08:44:01;14.5;;;13.2;;
73421;SDS011;61637;47.760;-122.022;2024-03-08T08:46:01;14.8;;;13.5;;
73421;SDS011;61637;47.760;-122.022;2024-03-08T08:48:01;14.6;;;13.3;;
73421;SDS011;61637;47.760;-122.022;2024-03-08T08:50:02;14.2;;;13.0;;
73421;SDS011;61637;47.760;-122.022;2024-03-08T08:52:01;14.1;;;12.9;;
73421;SDS011;61637;47.760;-122.022;2024-03-08T08:54:02;14.0;;;12.8;;
73421;SDS011;61637;47.760;-122.022;2024-03-08T08:56:01;14.0;;;12.8;;
73421;SDS011;61637;47.760;-122.022;2024-03-08T08:58:02;13.7;;;12.4;;
73421;SDS011;61637;47.760;-122.022;2024-03-08T09:00:02;13.9;;;12.7;;
73421;SDS011;61637;47.760;-122.022;2024-03-08T09:02:01;14.5;;;13.3;;
73421;SDS011;61637;47.760;-122.022;2024-03-08T09:04:01;14.0;;;12.8;;
73421;SDS011;61637;47.760;-122.022;2024-03-08T09:06:02;15.1;;;13.7;;
73421;SDS011;61637;47.760;-122.022;2024-03-08T09:08:01;14.5;;;13.0;;
73421;SDS011;61637;47.760;-122.022;2024-03-08T09:10:01;14.6;;;13.4;;
73421;SDS011;61637;47.760;-122.022;2024-03-08T09:12:01;14.0;;;12.8;;
73421;SDS011;61637;47.760;-122.022;2024-03-08T09:14:01;14.4;;;13.1;;
73421;SDS011;61637;47.760;-122.022;2024-03-08T09:16:02;13.6;;;12.4;;
73421;SDS011;61637;47.760;-122.022;2024-03-08T09:18:02;13.9;;;12.7;;
73421;SDS011;61637;47.760;-122.022;2024-03-08T09:20:01;13.4;;;12.3;;
73421;SDS011;61637;47.760;-122.022;2024-03-08T09:22:01;13.7;;;12.5;;
73421;SDS011;61637;47.760;-122.022;2024-03-08T09:24:02;14.2;;;12.8;;
73421;SDS011;61637;47.760;-122.022;2024-03-08T09:26:01;14.1;;;12.9;;
73421;SDS011;61637;47.760;-122.022;2024-03-08T09:28:01;13.8;;;12.5;;
73421;SDS011;61637;47.760;-122.022;2024-03-08T09:30:01;14.2;;;13.0;;
73421;SDS011;61637;47.760;-122.022;2024-03-08T09:32:01;14.1;;;12.9;;
73421;SDS011;61637;47.760;-122.022;2024-03-08T09:34:01;14.1;;;12.8;;
73421;SDS011;61637;47.760;-122.022;2024-03-08T09:36:01;14.7;;;13.4;;
73421;SDS011;61637;47.760;-122.022;2024-03-08T09:38:01;14.1;;;12.8;;
73421;SDS011;61637;47.760;-122.022;2024-03-08T09:40:02;13.9;;;12.7;;
73421;SDS011;61637;47.760;-122.022;2024-03-08T09:42:01;14.1;;;12.6;;
73421;SDS011;61637;47.760;-122.022;2024-03-08T09:44:01;13.3;;;12.2;;
73421;SDS011;61637;47.760;-122.022;2024-03-08T09:46:02;14.4;;;13.2;;
73421;SDS011;61637;47.760;-122.022;2024-03-08T09:48:01;14.3;;;13.0;;
73421;SDS011;61637;47.760;-122.022;2024-03-08T09:50:01;14.0;;;12.8;;
73421;SDS011;61637;47.760;-122.022;2024-03-08T09:52:02;13.5;;;12.3;;
73421;SDS011;61637;47.760;-122.022;2024-03-08T09:54:02;14.2;;;13.0;;
73421;SDS011;61637;47.760;-122.022;2024-03-08T09:56:01;14.1;;;12.8;;
73421;SDS011;61637;47.760;-122.022;2024-03-08T09:58:02;13.2;;;12.0;;
73421;SDS011;61637;47.760;-122.022;2024-03-08T10:00:01;13.6;;;12.4;;
73421;SDS011;61637;47.760;-122.022;2024-03-08T10:02:01;13.9;;;12.6;;
73421;SDS011;61637;47.760;-122.022;2024-03-08T10:04:02;13.8;;;12.4;;
73421;SDS011;61637;47.760;-122.022;2024-03-08T10:06:01;14.3;;;13.1;;
73421;SDS011;61637;47.760;-122.022;2024-03-08T10:08:01;14.5;;;13.2;;
73421;SDS011;61637;47.760;-122.022;2024-03-08T10:10:01;14.4;;;13.2;;
73421;SDS011;61637;47.760;-122.022;2024-03-08T10:12:01;14.3;;;13.1;;
73421;SDS011;61637;47.760;-122.022;2024-03-08T10:14:01;14.7;;;13.4;;
73421;SDS011;61637;47.760;-122.022;2024-03-08T10:16:01;13.9;;;12.7;;
73421;SDS011;61637;47.760;-122.022;2024-03-08T10:18:02;14.2;;;12.9;;
73421;SDS011;61637;47.760;-122.022;2024-03-08T10:20:01;14.6;;;13.3;;
73421;SDS011;61637;47.760;-122.022;2024-03-08T10:22:01;14.1;;;12.9;;
73421;SDS011;61637;47.760;-122.022;2024-03-08T10:24:03;14.3;;;13.1;;
73421;SDS011;61637;47.760;-122.022;2024-03-08T10:26:10;14.4;;;13.1;;
73421;SDS011;61637;47.760;-122.022;2024-03-08T10:28:03;14.1;;;12.8;;
73421;SDS011;61637;47.760;-122.022;2024-03-08T10:30:01;14.1;;;12.8;;
73421;SDS011;61637;47.760;-122.022;2024-03-08T10:32:02;14.4;;;13.2;;
73421;SDS011;61637;47.760;-122.022;2024-03-08T10:34:01;14.5;;;13.2;;
73421;SDS011;61637;47.760;-122.022;2024-03-08T10:36:01;14.6;;;13.4;;
73421;SDS011;61637;47.760;-122.022;2024-03-08T10:38:02;14.5;;;13.2;;
73421;SDS011;61637;47.760;-122.022;2024-03-08T10:40:04;13.7;;;12.6;;
73421;SDS011;61637;47.760;-122.022;2024-03-08T10:42:04;14.0;;;12.7;;
73421;SDS011;61637;47.760;-122.022;2024-03-08T10:44:12;13.2;;;12.1;;
73421;SDS011;61637;47.760;-122.022;2024-03-08T10:46:08;13.2;;;12.1;;
73421;SDS011;61637;47.760;-122.022;2024-03-08T10:48:10;13.2;;;12.0;;
73421;SDS011;61637;47.760;-122.022;2024-03-08T10:50:08;13.1;;;12.0;;
73421;SDS011;61637;47.760;-122.022;2024-03-08T10:52:03;13.7;;;12.6;;
73421;SDS011;61637;47.760;-122.022;2024-03-08T10:54:03;13.6;;;12.4;;
73421;SDS011;61637;47.760;-122.022;2024-03-08T10:56:01;13.4;;;12.2;;
73421;SDS011;61637;47.760;-122.022;2024-03-08T10:58:01;11.3;;;10.3;;
73421;SDS011;61637;47.760;-122.022;2024-03-08T11:00:02;11.4;;;10.4;;
73421;SDS011;61637;47.760;-122.022;2024-03-08T11:02:01;9.8;;;8.9;;
73421;SDS011;61637;47.760;-122.022;2024-03-08T11:04:04;11.5;;;10.4;;
73421;SDS011;61637;47.760;-122.022;2024-03-08T11:06:01;10.9;;;9.9;;
73421;SDS011;61637;47.760;-122.022;2024-03-08T11:08:01;12.3;;;11.1;;
73421;SDS011;61637;47.760;-122.022;2024-03-08T11:10:03;12.7;;;11.6;;
73421;SDS011;61637;47.760;-122.022;2024-03-08T11:14:02;14.0;;;12.8;;
73421;SDS011;61637;47.760;-122.022;2024-03-08T11:16:01;13.5;;;12.4;;
73421;SDS011;61637;47.760;-122.022;2024-03-08T11:18:01;14.0;;;12.8;;
73421;SDS011;61637;47.760;-122.022;2024-03-08T11:20:01;13.3;;;12.1;;
73421;SDS011;61637;47.760;-122.022;2024-03-08T11:22:02;13.6;;;12.5;;
73421;SDS011;61637;47.760;-122.022;2024-03-08T11:24:02;13.6;;;12.5;;
73421;SDS011;61637;47.760;-122.022;2024-03-08T11:26:01;13.8;;;12.6;;
73421;SDS011;61637;47.760;-122.022;2024-03-08T11:28:11;13.9;;;12.7;;
73421;SDS011;61637;47.760;-122.022;2024-03-08T11:30:02;14.0;;;12.8;;
73421;SDS011;61637;47.760;-122.022;2024-03-08T11:32:04;13.7;;;12.5;;
73421;SDS011;61637;47.760;-122.022;2024-03-08T11:34:01;13.6;;;12.4;;
73421;SDS011;61637;47.760;-122.022;2024-03-08T11:36:02;13.8;;;12.7;;
73421;SDS011;61637;47.760;-122.022;2024-03-08T11:38:01;13.8;;;12.6;;
73421;SDS011;61637;47.760;-122.022;2024-03-08T11:40:01;13.0;;;11.8;;